Time;durP1;ratioP1;P1;durP2;ratioP2;P2;SDS_P1;SDS_P2;PMS_P1;PMS_P2;Temp;Humidity;BMP_temperature;BMP_pressure;BME280_temperature;BME280_humidity;BME280_pressure;Samples;Min_cycle;Max_cycle;Signal;HPM_P1;HPM_P2
2021/11/20 00:01:08;;;;;;;12.17;6.50;;;;;;;;;;5056313;28;20542;-73
2021/11/20 00:03:39;;;;;;;11.00;5.30;;;;;;;;;;5056897;28;20457;-72
2021/11/20 00:06:07;;;;;;;14.30;5.60;;;;;;;;;;5055654;28;20597;-72
2021/11/20 00:08:36;;;;;;;6.83;4.57;;;;;;;;;;5056990;28;20822;-72
2021/11/20 00:11:06;;;;;;;10.80;6.53;;;;;;;;;;5055764;28;20493;-72
2021/11/20 00:13:34;;;;;;;8.40;5.80;;;;;;;;;;5057580;28;20711;-72
2021/11/20 00:16:04;;;;;;;8.60;5.37;;;;;;;;;;5056394;28;20787;-71
2021/11/20 00:18:32;;;;;;;7.33;4.20;;;;;;;;;;5055747;28;20788;-71
2021/11/20 00:21:01;;;;;;;13.63;5.20;;;;;;;;;;5056674;28;20469;-72
2021/11/20 00:23:30;;;;;;;10.13;5.17;;;;;;;;;;5056304;28;20453;-71
2021/11/20 00:26:00;;;;;;;8.13;3.50;;;;;;;;;;5056865;28;20512;-71
2021/11/20 00:28:40;;;;;;;9.10;5.70;;;;;;;;;;5055795;28;20466;-71
2021/11/20 00:31:10;;;;;;;8.93;5.40;;;;;;;;;;5054730;28;20555;-72
2021/11/20 00:33:39;;;;;;;9.60;5.67;;;;;;;;;;5055261;28;20480;-71
2021/11/20 00:36:07;;;;;;;6.27;3.40;;;;;;;;;;5055798;28;20555;-71
2021/11/20 00:38:36;;;;;;;9.83;7.23;;;;;;;;;;5056621;28;20500;-71
2021/11/20 00:41:08;;;;;;;10.53;3.47;;;;;;;;;;5041067;28;20481;-71
2021/11/20 00:43:36;;;;;;;12.93;3.17;;;;;;;;;;5047560;28;20587;-71
2021/11/20 00:46:08;;;;;;;8.10;2.50;;;;;;;;;;5056864;28;20587;-72
2021/11/20 00:48:36;;;;;;;7.10;3.30;;;;;;;;;;5055575;28;20811;-71
2021/11/20 00:51:05;;;;;;;6.60;2.83;;;;;;;;;;5056532;28;20465;-71
2021/11/20 00:53:33;;;;;;;6.30;2.77;;;;;;;;;;5056201;28;20559;-71
2021/11/20 00:56:01;;;;;;;4.10;2.77;;;;;;;;;;5055968;28;20590;-71
2021/11/20 00:58:30;;;;;;;12.50;3.27;;;;;;;;;;5056716;28;20508;-70
2021/11/20 01:01:00;;;;;;;4.53;3.10;;;;;;;;;;5055623;28;20489;-70
2021/11/20 01:03:28;;;;;;;4.00;1.60;;;;;;;;;;5055949;28;20860;-71
2021/11/20 01:05:56;;;;;;;7.40;2.77;;;;;;;;;;5056239;28;20612;-71
2021/11/20 01:08:25;;;;;;;10.10;3.13;;;;;;;;;;5056231;28;20461;-72
2021/11/20 01:10:57;;;;;;;7.93;3.20;;;;;;;;;;5055489;28;20469;-71
2021/11/20 01:13:25;;;;;;;5.67;3.20;;;;;;;;;;5055055;28;20542;-71
2021/11/20 01:15:55;;;;;;;4.83;2.93;;;;;;;;;;5055462;28;20536;-72
2021/11/20 01:18:27;;;;;;;5.90;2.63;;;;;;;;;;5056079;28;20861;-72
2021/11/20 01:20:55;;;;;;;7.03;3.07;;;;;;;;;;5055959;28;20461;-72
2021/11/20 01:23:24;;;;;;;4.63;2.77;;;;;;;;;;5055024;28;20465;-71
2021/11/20 01:25:53;;;;;;;7.43;2.87;;;;;;;;;;5055402;28;20493;-71
2021/11/20 01:28:22;;;;;;;5.83;2.70;;;;;;;;;;5054991;28;20500;-72
2021/11/20 01:30:54;;;;;;;4.43;3.00;;;;;;;;;;5054905;28;20845;-71
2021/11/20 01:33:23;;;;;;;5.60;2.00;;;;;;;;;;5054756;28;20472;-71
2021/11/20 01:35:51;;;;;;;12.30;3.63;;;;;;;;;;5054857;28;20467;-71
2021/11/20 01:38:19;;;;;;;8.13;3.07;;;;;;;;;;5054187;28;20893;-71
2021/11/20 01:40:47;;;;;;;4.33;2.60;;;;;;;;;;5054875;28;20790;-71
2021/11/20 01:43:16;;;;;;;4.60;2.67;;;;;;;;;;5054935;28;20468;-72
2021/11/20 01:45:49;;;;;;;6.00;2.90;;;;;;;;;;5055088;28;20485;-71
2021/11/20 01:48:29;;;;;;;6.63;3.60;;;;;;;;;;5055531;28;20644;-71
2021/11/20 01:50:58;;;;;;;5.00;2.57;;;;;;;;;;5055063;28;20756;-71
2021/11/20 01:53:30;;;;;;;9.60;4.63;;;;;;;;;;5055358;28;20544;-71
2021/11/20 01:56:00;;;;;;;4.90;2.90;;;;;;;;;;5055256;28;20484;-71
2021/11/20 01:58:31;;;;;;;7.63;2.50;;;;;;;;;;5054935;28;20799;-71
2021/11/20 02:01:01;;;;;;;4.87;2.00;;;;;;;;;;5055259;28;20545;-71
2021/11/20 02:03:34;;;;;;;7.63;4.80;;;;;;;;;;5054730;28;20453;-70
2021/11/20 02:06:12;;;;;;;5.77;3.13;;;;;;;;;;5055225;28;20558;-70
2021/11/20 02:08:43;;;;;;;6.00;2.60;;;;;;;;;;5054964;28;20911;-71
2021/11/20 02:11:12;;;;;;;6.07;2.00;;;;;;;;;;5054140;28;20476;-71
2021/11/20 02:13:42;;;;;;;11.13;2.57;;;;;;;;;;5043682;28;20493;-73
2021/11/20 02:16:14;;;;;;;4.23;2.17;;;;;;;;;;5035202;28;20715;-72
2021/11/20 02:18:45;;;;;;;5.17;2.63;;;;;;;;;;5035228;28;20509;-71
2021/11/20 02:21:14;;;;;;;4.97;2.50;;;;;;;;;;5034334;28;20466;-71
2021/11/20 02:23:42;;;;;;;4.23;2.03;;;;;;;;;;5034912;28;20473;-71
2021/11/20 02:26:10;;;;;;;7.60;3.50;;;;;;;;;;5033806;28;20563;-71
2021/11/20 02:28:40;;;;;;;5.47;1.90;;;;;;;;;;5034714;28;20462;-71
2021/11/20 02:31:09;;;;;;;5.80;2.87;;;;;;;;;;5034545;28;20462;-71
2021/11/20 02:33:42;;;;;;;8.50;3.20;;;;;;;;;;5034690;28;20812;-71
2021/11/20 02:36:11;;;;;;;5.87;2.50;;;;;;;;;;5034837;28;20827;-70
2021/11/20 02:38:40;;;;;;;6.13;3.43;;;;;;;;;;5034177;28;20461;-70
2021/11/20 02:41:10;;;;;;;7.70;2.63;;;;;;;;;;5036244;28;20529;-70
2021/11/20 02:43:40;;;;;;;9.43;3.57;;;;;;;;;;5037750;28;20889;-71
2021/11/20 02:46:10;;;;;;;13.70;3.80;;;;;;;;;;5037610;28;20493;-71
2021/11/20 02:48:38;;;;;;;11.83;4.97;;;;;;;;;;5038240;28;20458;-70
2021/11/20 02:51:07;;;;;;;6.23;3.47;;;;;;;;;;5038422;28;20470;-71
2021/11/20 02:53:36;;;;;;;5.30;3.67;;;;;;;;;;5038639;28;20458;-71
2021/11/20 02:56:08;;;;;;;7.30;3.20;;;;;;;;;;5038618;28;20594;-71
2021/11/20 02:58:35;;;;;;;5.53;3.43;;;;;;;;;;5038501;28;20450;-71
2021/11/20 03:01:06;;;;;;;8.50;2.93;;;;;;;;;;5038581;28;20454;-71
2021/11/20 03:03:39;;;;;;;10.47;3.97;;;;;;;;;;5039409;28;20790;-71
2021/11/20 03:06:07;;;;;;;12.83;3.60;;;;;;;;;;5038856;28;20501;-71
2021/11/20 03:08:35;;;;;;;5.40;3.10;;;;;;;;;;5039466;28;20462;-71
2021/11/20 03:11:04;;;;;;;12.43;4.73;;;;;;;;;;5038408;28;20515;-71
2021/11/20 03:13:32;;;;;;;8.33;3.80;;;;;;;;;;5038603;28;20544;-71
2021/11/20 03:16:00;;;;;;;10.17;4.10;;;;;;;;;;5038603;28;20466;-71
2021/11/20 03:18:28;;;;;;;10.27;4.20;;;;;;;;;;5039209;28;20478;-71
2021/11/20 03:20:57;;;;;;;14.90;4.90;;;;;;;;;;5037863;28;20469;-71
2021/11/20 03:23:26;;;;;;;9.50;4.27;;;;;;;;;;5038424;28;20473;-71
2021/11/20 03:25:54;;;;;;;15.93;5.23;;;;;;;;;;5038556;28;20929;-71
2021/11/20 03:28:22;;;;;;;5.73;3.60;;;;;;;;;;5038005;28;20466;-71
2021/11/20 03:30:50;;;;;;;9.20;4.20;;;;;;;;;;5038328;28;20473;-71
2021/11/20 03:33:19;;;;;;;10.57;3.97;;;;;;;;;;5038597;28;20489;-71
2021/11/20 03:35:47;;;;;;;14.87;5.07;;;;;;;;;;5038071;28;21460;-71
2021/11/20 03:38:17;;;;;;;13.23;4.73;;;;;;;;;;5038030;28;20470;-71
2021/11/20 03:40:45;;;;;;;10.43;3.60;;;;;;;;;;5037915;28;20485;-71
2021/11/20 03:43:13;;;;;;;8.53;3.60;;;;;;;;;;5038281;28;20468;-71
2021/11/20 03:45:41;;;;;;;6.87;4.47;;;;;;;;;;5037465;28;20548;-71
2021/11/20 03:48:10;;;;;;;7.70;3.30;;;;;;;;;;5037284;28;20466;-71
2021/11/20 03:50:38;;;;;;;10.47;3.93;;;;;;;;;;5037564;28;20467;-71
2021/11/20 03:53:06;;;;;;;11.00;3.77;;;;;;;;;;5037519;28;20744;-71
2021/11/20 03:55:37;;;;;;;5.50;3.00;;;;;;;;;;5037784;28;20458;-71
2021/11/20 03:58:05;;;;;;;11.90;3.30;;;;;;;;;;5037998;28;20879;-71
2021/11/20 04:00:34;;;;;;;6.37;3.43;;;;;;;;;;5037450;28;20465;-71
2021/11/20 04:03:02;;;;;;;13.90;4.23;;;;;;;;;;5037332;28;20568;-71
2021/11/20 04:05:32;;;;;;;5.97;3.60;;;;;;;;;;5037552;28;20466;-71
2021/11/20 04:08:00;;;;;;;11.87;4.20;;;;;;;;;;5037620;28;20477;-71
2021/11/20 04:10:28;;;;;;;5.63;3.50;;;;;;;;;;5037343;28;20854;-71
2021/11/20 04:12:57;;;;;;;5.97;3.87;;;;;;;;;;5036972;28;20454;-71
2021/11/20 04:15:26;;;;;;;9.60;4.20;;;;;;;;;;5036975;28;20462;-71
2021/11/20 04:17:54;;;;;;;11.10;5.07;;;;;;;;;;5037077;28;20478;-72
2021/11/20 04:20:23;;;;;;;11.60;4.83;;;;;;;;;;5037282;28;20745;-71
2021/11/20 04:22:51;;;;;;;9.23;4.53;;;;;;;;;;5037496;28;20458;-71
2021/11/20 04:25:21;;;;;;;11.30;5.87;;;;;;;;;;5036405;28;20476;-71
2021/11/20 04:27:49;;;;;;;11.90;6.20;;;;;;;;;;5036165;28;20950;-71
2021/11/20 04:30:19;;;;;;;18.40;6.50;;;;;;;;;;5036989;28;20477;-71
2021/11/20 04:32:47;;;;;;;10.70;5.33;;;;;;;;;;5036623;28;20466;-71
2021/11/20 04:35:16;;;;;;;19.60;6.50;;;;;;;;;;5036796;28;20829;-72
2021/11/20 04:37:44;;;;;;;14.57;5.27;;;;;;;;;;5036911;28;20486;-72
2021/11/20 04:40:14;;;;;;;14.57;5.17;;;;;;;;;;5040903;28;20477;-72
2021/11/20 04:42:42;;;;;;;9.80;4.70;;;;;;;;;;5056876;28;20464;-71
2021/11/20 04:45:11;;;;;;;14.53;5.87;;;;;;;;;;5056440;28;20888;-71
2021/11/20 04:47:40;;;;;;;9.40;4.90;;;;;;;;;;5055412;28;20485;-71
2021/11/20 04:50:09;;;;;;;9.33;5.00;;;;;;;;;;5056597;28;20461;-71
2021/11/20 04:52:40;;;;;;;11.87;6.10;;;;;;;;;;5056245;28;20489;-71
2021/11/20 04:55:09;;;;;;;17.30;5.90;;;;;;;;;;5056452;28;20470;-71
2021/11/20 04:57:36;;;;;;;13.90;6.50;;;;;;;;;;5056548;28;20939;-71
2021/11/20 05:00:07;;;;;;;11.10;5.00;;;;;;;;;;5056124;28;20469;-71
2021/11/20 05:02:35;;;;;;;15.70;5.60;;;;;;;;;;5056277;28;20467;-71
2021/11/20 05:05:05;;;;;;;14.73;6.90;;;;;;;;;;5055404;28;20483;-71
2021/11/20 05:07:36;;;;;;;13.83;5.50;;;;;;;;;;5056231;28;20761;-71
2021/11/20 05:10:04;;;;;;;10.30;5.40;;;;;;;;;;5056253;28;20462;-71
2021/11/20 05:12:32;;;;;;;9.87;5.93;;;;;;;;;;5055950;28;20780;-70
2021/11/20 05:15:00;;;;;;;9.03;6.03;;;;;;;;;;5056129;28;20468;-70
2021/11/20 05:17:28;;;;;;;6.47;4.70;;;;;;;;;;5055949;28;20457;-70
2021/11/20 05:19:56;;;;;;;16.73;5.17;;;;;;;;;;5055801;28;20461;-70
2021/11/20 05:22:25;;;;;;;11.07;4.93;;;;;;;;;;5056003;28;20454;-72
2021/11/20 05:24:53;;;;;;;9.40;6.20;;;;;;;;;;5056484;28;20539;-72
2021/11/20 05:27:21;;;;;;;12.43;7.60;;;;;;;;;;5056574;28;20581;-72
2021/11/20 05:29:53;;;;;;;24.67;9.37;;;;;;;;;;5060152;28;20464;-72
2021/11/20 05:32:21;;;;;;;17.13;7.60;;;;;;;;;;5057336;28;21132;-72
2021/11/20 05:34:48;;;;;;;18.87;9.40;;;;;;;;;;5056523;28;20576;-71
2021/11/20 05:37:16;;;;;;;20.10;11.30;;;;;;;;;;5055887;28;20461;-71
2021/11/20 05:39:45;;;;;;;21.80;12.07;;;;;;;;;;5055798;28;20497;-71
2021/11/20 05:42:13;;;;;;;18.13;12.33;;;;;;;;;;5055393;28;20881;-71
2021/11/20 05:44:41;;;;;;;19.60;11.13;;;;;;;;;;5055980;28;20823;-71
2021/11/20 05:47:09;;;;;;;20.87;12.53;;;;;;;;;;5056371;28;20492;-71
2021/11/20 05:49:38;;;;;;;17.00;11.53;;;;;;;;;;5056358;28;20475;-71
2021/11/20 05:52:10;;;;;;;18.00;12.30;;;;;;;;;;5054244;28;20820;-71
2021/11/20 05:54:40;;;;;;;18.37;12.80;;;;;;;;;;5057400;28;20738;-71
2021/11/20 05:57:10;;;;;;;18.57;9.40;;;;;;;;;;5056199;28;20530;-72
2021/11/20 05:59:44;;;;;;;25.80;12.70;;;;;;;;;;5056296;28;20764;-71
2021/11/20 06:02:11;;;;;;;21.70;12.67;;;;;;;;;;5056150;28;20488;-72
2021/11/20 06:04:39;;;;;;;23.87;12.73;;;;;;;;;;5055525;28;20501;-70
2021/11/20 06:07:11;;;;;;;20.80;11.47;;;;;;;;;;5055292;28;20492;-73
2021/11/20 06:09:43;;;;;;;14.60;9.30;;;;;;;;;;5056191;28;20480;-71
2021/11/20 06:15:08;;;;;;;15.57;9.40;;;;;;;;;;5054667;28;20729;-72
2021/11/20 06:17:35;;;;;;;29.03;11.47;;;;;;;;;;5059957;28;20461;-72
2021/11/20 06:20:04;;;;;;;19.03;11.63;;;;;;;;;;5060269;28;20465;-71
2021/11/20 06:22:35;;;;;;;19.23;9.83;;;;;;;;;;5059167;28;20846;-71
2021/11/20 06:25:03;;;;;;;17.37;10.33;;;;;;;;;;5043850;28;20866;-72
2021/11/20 06:27:35;;;;;;;14.57;10.77;;;;;;;;;;5045384;28;20516;-71
2021/11/20 06:30:03;;;;;;;29.77;10.80;;;;;;;;;;5044626;28;20485;-71
2021/11/20 06:32:30;;;;;;;15.47;10.77;;;;;;;;;;5044596;28;20524;-70
2021/11/20 06:34:58;;;;;;;20.00;11.60;;;;;;;;;;5043496;28;20556;-71
2021/11/20 06:37:26;;;;;;;16.00;10.43;;;;;;;;;;5039023;28;20556;-70
2021/11/20 06:39:54;;;;;;;23.50;12.53;;;;;;;;;;5038826;28;20462;-70
2021/11/20 06:42:21;;;;;;;19.80;13.03;;;;;;;;;;5039413;28;20450;-71
2021/11/20 06:44:51;;;;;;;16.00;10.90;;;;;;;;;;5038759;28;20532;-71
2021/11/20 06:47:19;;;;;;;15.03;9.87;;;;;;;;;;5038341;28;20528;-73
2021/11/20 06:49:47;;;;;;;14.70;11.33;;;;;;;;;;5038305;28;20474;-70
2021/11/20 06:52:15;;;;;;;15.80;10.30;;;;;;;;;;5038481;28;20458;-71
2021/11/20 06:54:43;;;;;;;19.90;12.47;;;;;;;;;;5038084;28;20862;-70
2021/11/20 06:57:13;;;;;;;17.77;11.57;;;;;;;;;;5038243;28;20568;-72
2021/11/20 07:02:33;;;;;;;14.03;9.50;;;;;;;;;;5038252;28;20504;-71
2021/11/20 07:05:01;;;;;;;16.70;10.87;;;;;;;;;;5038257;28;20450;-71
2021/11/20 07:07:33;;;;;;;17.03;10.90;;;;;;;;;;5038336;28;20513;-71
2021/11/20 07:10:01;;;;;;;14.40;7.20;;;;;;;;;;5037770;28;20948;-71
2021/11/20 07:12:29;;;;;;;12.30;7.63;;;;;;;;;;5037892;28;20465;-71
2021/11/20 07:14:56;;;;;;;8.40;5.50;;;;;;;;;;5038401;28;20462;-71
2021/11/20 07:17:24;;;;;;;16.13;8.60;;;;;;;;;;5037534;28;20473;-71
2021/11/20 07:19:59;;;;;;;11.90;6.90;;;;;;;;;;5037425;28;20904;-71
2021/11/20 07:22:26;;;;;;;18.13;10.30;;;;;;;;;;5037113;28;20870;-71
2021/11/20 07:24:58;;;;;;;8.87;6.97;;;;;;;;;;5037895;28;20468;-70
2021/11/20 07:27:26;;;;;;;13.87;8.93;;;;;;;;;;5037977;28;20544;-71
2021/11/20 07:29:54;;;;;;;10.20;7.03;;;;;;;;;;5038337;28;20465;-70
2021/11/20 07:32:26;;;;;;;11.90;7.73;;;;;;;;;;5037891;28;20462;-71
2021/11/20 07:34:55;;;;;;;8.27;6.03;;;;;;;;;;5051735;28;20475;-71
2021/11/20 07:37:23;;;;;;;11.30;6.33;;;;;;;;;;5057163;28;20473;-70
2021/11/20 07:39:51;;;;;;;8.67;6.97;;;;;;;;;;5056674;28;20464;-71
2021/11/20 07:42:19;;;;;;;13.67;9.60;;;;;;;;;;5057720;28;20488;-71
2021/11/20 07:44:49;;;;;;;13.67;8.93;;;;;;;;;;5058130;28;20754;-71
2021/11/20 07:47:17;;;;;;;14.10;7.60;;;;;;;;;;5059099;28;20481;-70
2021/11/20 07:49:47;;;;;;;14.50;9.37;;;;;;;;;;5057957;28;20900;-71
2021/11/20 07:52:16;;;;;;;16.07;8.60;;;;;;;;;;5056991;28;20531;-71
2021/11/20 07:54:44;;;;;;;14.93;8.60;;;;;;;;;;5039485;28;20873;-71
2021/11/20 07:57:12;;;;;;;20.07;10.23;;;;;;;;;;5037398;28;20458;-71
2021/11/20 07:59:40;;;;;;;18.00;9.50;;;;;;;;;;5039588;28;20531;-71
2021/11/20 08:02:09;;;;;;;11.03;7.93;;;;;;;;;;5055592;28;20458;-71
2021/11/20 08:04:38;;;;;;;14.63;9.90;;;;;;;;;;5055767;28;20457;-71
2021/11/20 08:07:08;;;;;;;17.57;10.43;;;;;;;;;;5055137;28;20493;-71
2021/11/20 08:09:37;;;;;;;16.33;10.37;;;;;;;;;;5054615;28;20708;-71
2021/11/20 08:12:06;;;;;;;16.03;10.63;;;;;;;;;;5055981;28;20453;-71
2021/11/20 08:14:34;;;;;;;16.23;11.63;;;;;;;;;;5056204;28;20908;-71
2021/11/20 08:17:03;;;;;;;17.83;11.57;;;;;;;;;;5056545;28;20449;-71
2021/11/20 08:19:32;;;;;;;17.63;11.40;;;;;;;;;;5048446;28;20478;-70
2021/11/20 08:22:01;;;;;;;17.20;11.13;;;;;;;;;;5056447;28;20531;-71
2021/11/20 08:24:29;;;;;;;18.27;11.13;;;;;;;;;;5056177;28;20465;-70
2021/11/20 08:26:59;;;;;;;21.73;13.97;;;;;;;;;;5055030;28;20446;-70
2021/11/20 08:29:30;;;;;;;14.00;10.23;;;;;;;;;;5055631;28;20497;-71
2021/11/20 08:31:58;;;;;;;23.40;13.57;;;;;;;;;;5055494;28;20897;-71
2021/11/20 08:34:27;;;;;;;22.70;14.43;;;;;;;;;;5055347;28;20469;-71
2021/11/20 08:36:56;;;;;;;22.30;13.83;;;;;;;;;;5055732;28;20561;-72
2021/11/20 08:39:23;;;;;;;18.70;11.90;;;;;;;;;;5055079;28;20525;-72
2021/11/20 08:41:52;;;;;;;18.37;13.87;;;;;;;;;;5054427;28;20921;-71
2021/11/20 08:44:21;;;;;;;21.40;13.20;;;;;;;;;;5054856;28;20716;-70
2021/11/20 08:46:50;;;;;;;15.47;10.37;;;;;;;;;;5055397;28;20841;-72
2021/11/20 08:52:03;;;;;;;18.93;11.30;;;;;;;;;;5050599;28;20467;-72
2021/11/20 08:54:32;;;;;;;20.93;11.23;;;;;;;;;;5054498;28;20935;-72
2021/11/20 08:57:00;;;;;;;15.53;10.53;;;;;;;;;;5055458;28;20803;-71
2021/11/20 08:59:30;;;;;;;13.27;7.67;;;;;;;;;;5055655;28;20505;-70
2021/11/20 09:01:59;;;;;;;16.53;10.90;;;;;;;;;;5037800;28;20470;-70
2021/11/20 09:04:42;;;;;;;17.10;10.57;;;;;;;;;;5035505;28;20596;-70
2021/11/20 09:07:12;;;;;;;11.80;8.40;;;;;;;;;;5035413;28;20451;-72
2021/11/20 09:09:43;;;;;;;15.23;8.50;;;;;;;;;;5035967;28;20458;-71
2021/11/20 09:12:12;;;;;;;12.97;8.37;;;;;;;;;;5035125;28;20483;-71
2021/11/20 09:14:44;;;;;;;14.23;9.80;;;;;;;;;;5032966;28;20793;-72
2021/11/20 09:17:16;;;;;;;14.20;8.10;;;;;;;;;;5034274;28;20462;-70
2021/11/20 09:19:50;;;;;;;11.97;10.20;;;;;;;;;;5034615;28;20473;-71
2021/11/20 09:22:18;;;;;;;17.10;11.33;;;;;;;;;;5034340;28;20481;-72
2021/11/20 09:24:47;;;;;;;17.73;8.57;;;;;;;;;;5034252;28;20497;-71
2021/11/20 09:27:15;;;;;;;14.90;9.30;;;;;;;;;;5035481;28;20527;-72
2021/11/20 09:29:45;;;;;;;17.17;8.40;;;;;;;;;;5035632;28;20462;-71
2021/11/20 09:32:14;;;;;;;12.33;9.47;;;;;;;;;;5034784;28;20462;-70
2021/11/20 09:34:42;;;;;;;12.67;10.13;;;;;;;;;;5033874;28;20920;-71
2021/11/20 09:37:10;;;;;;;10.27;7.40;;;;;;;;;;5033702;28;20497;-71
2021/11/20 09:39:39;;;;;;;10.30;8.60;;;;;;;;;;5035494;28;20468;-71
2021/11/20 09:42:29;;;;;;;13.80;9.80;;;;;;;;;;5035411;28;20749;-70
2021/11/20 09:45:00;;;;;;;14.43;11.50;;;;;;;;;;5044164;28;20492;-71
2021/11/20 09:47:30;;;;;;;17.07;10.73;;;;;;;;;;5037743;28;20611;-71
2021/11/20 09:50:04;;;;;;;14.87;10.83;;;;;;;;;;5055692;28;20809;-71
2021/11/20 09:52:32;;;;;;;15.53;9.33;;;;;;;;;;5058589;28;20832;-71
2021/11/20 09:54:59;;;;;;;16.07;12.20;;;;;;;;;;5057204;28;20649;-72
2021/11/20 09:57:30;;;;;;;14.43;9.83;;;;;;;;;;5055338;28;20464;-72
2021/11/20 10:00:09;;;;;;;14.50;9.63;;;;;;;;;;5058329;28;20464;-73
2021/11/20 10:02:51;;;;;;;10.90;9.00;;;;;;;;;;5057432;28;20591;-71
2021/11/20 10:05:23;;;;;;;11.27;6.77;;;;;;;;;;5051749;28;20485;-72
2021/11/20 10:07:52;;;;;;;14.43;8.53;;;;;;;;;;5058004;28;20549;-71
2021/11/20 10:10:24;;;;;;;19.47;11.63;;;;;;;;;;5053888;28;20466;-72
2021/11/20 10:13:14;;;;;;;13.83;10.57;;;;;;;;;;5044787;28;20477;-73
2021/11/20 10:15:48;;;;;;;12.60;10.30;;;;;;;;;;5045926;28;20560;-75
2021/11/20 10:18:27;;;;;;;12.03;8.77;;;;;;;;;;5047195;28;20458;-73
2021/11/20 10:21:02;;;;;;;11.53;8.90;;;;;;;;;;5049834;28;20779;-72
2021/11/20 10:23:35;;;;;;;9.13;7.27;;;;;;;;;;5055928;28;20943;-73
2021/11/20 10:26:26;;;;;;;12.37;9.83;;;;;;;;;;5056387;28;20752;-73
2021/11/20 10:29:08;;;;;;;14.20;9.70;;;;;;;;;;5024613;28;20485;-74
2021/11/20 10:31:40;;;;;;;14.43;10.77;;;;;;;;;;5047087;28;20548;-72
2021/11/20 10:34:18;;;;;;;8.70;6.80;;;;;;;;;;5038979;28;20523;-72
2021/11/20 10:36:53;;;;;;;10.43;8.23;;;;;;;;;;5038792;28;21053;-73
2021/11/20 10:39:26;;;;;;;9.00;7.23;;;;;;;;;;5038163;28;20497;-72
2021/11/20 10:41:56;;;;;;;9.43;6.33;;;;;;;;;;5038099;28;20497;-73
2021/11/20 10:44:26;;;;;;;10.77;7.70;;;;;;;;;;5047282;28;20450;-75
2021/11/20 10:47:10;;;;;;;7.30;6.60;;;;;;;;;;5048581;28;20464;-71
2021/11/20 10:49:56;;;;;;;9.17;7.27;;;;;;;;;;5056466;28;20568;-72
2021/11/20 10:52:39;;;;;;;9.53;7.70;;;;;;;;;;5051068;28;20484;-71
2021/11/20 10:55:13;;;;;;;10.37;8.77;;;;;;;;;;5015624;28;20541;-72
2021/11/20 10:57:56;;;;;;;13.23;9.37;;;;;;;;;;5045786;28;20769;-71
2021/11/20 11:00:28;;;;;;;9.37;7.57;;;;;;;;;;5040599;28;20714;-71
2021/11/20 11:03:14;;;;;;;9.03;5.77;;;;;;;;;;5046591;28;20466;-72
2021/11/20 11:06:00;;;;;;;9.87;5.97;;;;;;;;;;5042157;28;20515;-71
2021/11/20 11:08:34;;;;;;;11.30;8.33;;;;;;;;;;5045731;28;20499;-72
2021/11/20 11:11:07;;;;;;;7.83;6.80;;;;;;;;;;5055408;28;20456;-72
2021/11/20 11:13:45;;;;;;;13.20;6.53;;;;;;;;;;5054043;28;20465;-72
2021/11/20 11:16:19;;;;;;;8.87;7.87;;;;;;;;;;5054827;28;20453;-70
2021/11/20 11:18:48;;;;;;;9.30;7.13;;;;;;;;;;5052128;28;20558;-70
2021/11/20 11:21:38;;;;;;;9.77;7.33;;;;;;;;;;5046669;28;20465;-71
2021/11/20 11:24:15;;;;;;;8.00;5.00;;;;;;;;;;5037103;28;20477;-71
2021/11/20 11:26:48;;;;;;;8.70;6.40;;;;;;;;;;5037513;28;20474;-73
2021/11/20 11:29:21;;;;;;;7.90;6.47;;;;;;;;;;5046971;28;20486;-71
2021/11/20 11:31:49;;;;;;;10.50;8.00;;;;;;;;;;5044101;28;20617;-71
2021/11/20 11:34:23;;;;;;;14.23;7.80;;;;;;;;;;5055925;28;20552;-70
2021/11/20 11:36:53;;;;;;;7.60;5.93;;;;;;;;;;5036521;28;20453;-71
2021/11/20 11:39:35;;;;;;;8.67;6.17;;;;;;;;;;5036510;28;20470;-70
2021/11/20 11:42:23;;;;;;;8.10;6.80;;;;;;;;;;5049651;28;20453;-72
2021/11/20 11:44:58;;;;;;;8.70;5.23;;;;;;;;;;5051887;28;20481;-71
2021/11/20 11:47:29;;;;;;;10.97;8.67;;;;;;;;;;5049129;28;20473;-72
2021/11/20 11:50:03;;;;;;;15.23;7.47;;;;;;;;;;5051221;28;20492;-71
2021/11/20 11:52:45;;;;;;;8.17;6.03;;;;;;;;;;5039193;28;20835;-72
2021/11/20 11:55:17;;;;;;;10.23;7.60;;;;;;;;;;5046012;28;20446;-72
2021/11/20 11:58:03;;;;;;;9.20;7.20;;;;;;;;;;5043288;28;20552;-71
2021/11/20 12:00:34;;;;;;;13.67;9.57;;;;;;;;;;5043583;28;20490;-71
2021/11/20 12:03:04;;;;;;;11.03;8.60;;;;;;;;;;5052422;28;20453;-71
2021/11/20 12:05:41;;;;;;;14.20;6.70;;;;;;;;;;5055642;28;20476;-71
2021/11/20 12:08:31;;;;;;;9.00;7.50;;;;;;;;;;5050346;28;20462;-72
2021/11/20 12:11:03;;;;;;;11.30;9.80;;;;;;;;;;5056073;28;20459;-71
2021/11/20 12:13:37;;;;;;;14.30;9.77;;;;;;;;;;5036931;28;20897;-70
2021/11/20 12:16:10;;;;;;;13.23;9.07;;;;;;;;;;5055036;28;20638;-71
2021/11/20 12:18:57;;;;;;;14.53;10.37;;;;;;;;;;5053345;28;20881;-70
2021/11/20 12:21:31;;;;;;;8.10;6.60;;;;;;;;;;5051214;28;20759;-70
2021/11/20 12:24:04;;;;;;;8.47;6.00;;;;;;;;;;5054560;28;20465;-72
2021/11/20 12:26:39;;;;;;;13.50;10.40;;;;;;;;;;5051498;28;20533;-73
2021/11/20 12:29:28;;;;;;;17.67;10.33;;;;;;;;;;5050912;28;20485;-72
2021/11/20 12:32:22;;;;;;;10.90;7.50;;;;;;;;;;5011585;28;20553;-71
2021/11/20 12:35:03;;;;;;;16.17;11.53;;;;;;;;;;5041394;28;20445;-73
2021/11/20 12:37:37;;;;;;;18.20;12.07;;;;;;;;;;5034326;28;20466;-71
2021/11/20 12:40:23;;;;;;;15.97;11.97;;;;;;;;;;5043868;28;20458;-70
2021/11/20 12:43:03;;;;;;;15.37;10.90;;;;;;;;;;5043143;28;20548;-71
2021/11/20 12:46:02;;;;;;;15.70;11.77;;;;;;;;;;5051869;28;20487;-72
2021/11/20 12:48:50;;;;;;;15.10;11.23;;;;;;;;;;5051963;28;20504;-72
2021/11/20 12:51:35;;;;;;;13.60;9.53;;;;;;;;;;5042784;28;20480;-72
2021/11/20 12:54:19;;;;;;;15.13;11.97;;;;;;;;;;5048893;28;20469;-72
2021/11/20 12:56:47;;;;;;;15.23;11.77;;;;;;;;;;5044028;28;20480;-72
2021/11/20 12:59:19;;;;;;;16.10;11.13;;;;;;;;;;5045372;28;20682;-72
2021/11/20 13:01:49;;;;;;;17.53;11.03;;;;;;;;;;5040032;28;20450;-71
2021/11/20 13:04:18;;;;;;;15.50;12.17;;;;;;;;;;5038762;28;20508;-71
2021/11/20 13:06:48;;;;;;;16.13;12.43;;;;;;;;;;5046748;28;20452;-72
2021/11/20 13:09:38;;;;;;;17.87;13.50;;;;;;;;;;5053632;28;20920;-72
2021/11/20 13:12:12;;;;;;;19.60;13.27;;;;;;;;;;5042590;28;20504;-73
2021/11/20 13:15:00;;;;;;;15.80;12.97;;;;;;;;;;5048513;28;20457;-71
2021/11/20 13:17:36;;;;;;;21.93;15.17;;;;;;;;;;5050967;28;20466;-73
2021/11/20 13:20:22;;;;;;;18.10;13.83;;;;;;;;;;5040718;28;20473;-73
2021/11/20 13:23:13;;;;;;;10.43;7.60;;;;;;;;;;5051200;28;20460;-73
2021/11/20 13:26:08;;;;;;;21.10;16.57;;;;;;;;;;5059220;28;20547;-73
2021/11/20 13:28:40;;;;;;;16.03;12.53;;;;;;;;;;5053915;28;20531;-74
2021/11/20 13:31:25;;;;;;;17.43;13.90;;;;;;;;;;5052533;28;20547;-72
2021/11/20 13:36:50;;;;;;;17.07;11.97;;;;;;;;;;5040545;28;20910;-72
2021/11/20 13:39:19;;;;;;;22.53;16.80;;;;;;;;;;5039261;28;20640;-72
2021/11/20 13:41:55;;;;;;;15.00;10.90;;;;;;;;;;5037283;28;20540;-72
2021/11/20 13:44:26;;;;;;;27.17;17.70;;;;;;;;;;5040391;28;20449;-71
2021/11/20 13:46:56;;;;;;;23.93;12.37;;;;;;;;;;5037072;28;20473;-71
2021/11/20 13:49:39;;;;;;;15.27;11.20;;;;;;;;;;5037354;28;20952;-71
2021/11/20 13:52:19;;;;;;;14.13;9.20;;;;;;;;;;5039257;28;20600;-72
2021/11/20 13:54:57;;;;;;;15.00;11.90;;;;;;;;;;5037819;28;20466;-72
2021/11/20 13:57:38;;;;;;;17.10;11.83;;;;;;;;;;5045491;28;20470;-72
2021/11/20 14:00:16;;;;;;;18.83;11.87;;;;;;;;;;5050783;28;20904;-70
2021/11/20 14:03:05;;;;;;;17.90;13.00;;;;;;;;;;5041589;28;20548;-72
2021/11/20 14:05:36;;;;;;;24.20;14.63;;;;;;;;;;5026218;28;20577;-71
2021/11/20 14:08:05;;;;;;;20.97;14.80;;;;;;;;;;5042973;28;20461;-71
2021/11/20 14:10:36;;;;;;;15.80;12.70;;;;;;;;;;5041992;28;20489;-72
2021/11/20 14:13:17;;;;;;;19.23;14.10;;;;;;;;;;5033736;28;20542;-71
2021/11/20 14:15:51;;;;;;;19.70;14.00;;;;;;;;;;5034441;28;20762;-71
2021/11/20 14:18:19;;;;;;;19.13;13.50;;;;;;;;;;5034474;28;20470;-72
2021/11/20 14:20:52;;;;;;;19.43;13.67;;;;;;;;;;5048806;28;20493;-72
2021/11/20 14:23:31;;;;;;;15.07;10.10;;;;;;;;;;5035635;28;20446;-71
2021/11/20 14:26:04;;;;;;;22.40;13.50;;;;;;;;;;5045062;28;20544;-72
2021/11/20 14:28:38;;;;;;;18.60;14.77;;;;;;;;;;5044472;28;20461;-72
2021/11/20 14:31:31;;;;;;;20.53;16.03;;;;;;;;;;5046623;28;20458;-74
2021/11/20 14:34:10;;;;;;;20.23;15.37;;;;;;;;;;5048398;28;20469;-71
2021/11/20 14:36:46;;;;;;;19.40;12.77;;;;;;;;;;5055216;28;20473;-72
2021/11/20 14:39:22;;;;;;;18.37;12.00;;;;;;;;;;5055767;28;20474;-72
2021/11/20 14:42:05;;;;;;;23.53;17.67;;;;;;;;;;5056602;28;20721;-72
2021/11/20 14:44:41;;;;;;;9.07;7.77;;;;;;;;;;5053480;28;20472;-71
2021/11/20 14:47:18;;;;;;;19.47;13.97;;;;;;;;;;5052516;28;20446;-72
2021/11/20 14:50:16;;;;;;;39.83;21.10;;;;;;;;;;5045595;28;20474;-71
2021/11/20 14:55:58;;;;;;;26.63;15.40;;;;;;;;;;5036275;28;20747;-72
2021/11/20 14:58:47;;;;;;;19.60;14.90;;;;;;;;;;5054481;28;20755;-72
2021/11/20 15:01:33;;;;;;;23.50;15.27;;;;;;;;;;5042715;28;20450;-72
2021/11/20 15:04:20;;;;;;;21.47;14.33;;;;;;;;;;5053653;28;20537;-72
2021/11/20 15:06:55;;;;;;;19.73;14.70;;;;;;;;;;5058009;28;20449;-73
2021/11/20 15:12:28;;;;;;;23.57;16.03;;;;;;;;;;5053909;28;20885;-71
2021/11/20 15:15:25;;;;;;;17.80;12.83;;;;;;;;;;5045180;28;20499;-72